createdAt,value
2022-09-03T00:01:19.517Z,1.10
2022-09-03T00:06:34.261Z,1.20
2022-09-03T00:11:58.315Z,1.30
2022-09-03T00:17:09.362Z,1.25
2022-09-03T00:22:18.975Z,1.20
2022-09-03T00:27:24.908Z,1.20
2022-09-03T00:32:59.405Z,1.30
2022-09-03T00:38:01.469Z,0.93
2022-09-03T00:43:42.479Z,1.08
2022-09-03T00:49:05.752Z,2.10
2022-09-03T00:54:15.326Z,1.33
2022-09-03T00:59:35.855Z,1.42
2022-09-03T01:05:08.417Z,0.90
2022-09-03T01:10:26.122Z,1.08
2022-09-03T01:15:44.449Z,1.27
2022-09-03T01:21:05.643Z,1.10
2022-09-03T01:26:45.091Z,1.00
2022-09-03T01:31:58.889Z,1.15
2022-09-03T01:37:06.493Z,0.88
2022-09-03T01:42:42.220Z,1.20
2022-09-03T01:48:10.919Z,1.40
2022-09-03T01:53:27.496Z,1.40
2022-09-03T01:58:40.654Z,1.40
2022-09-03T02:03:45.513Z,1.25
2022-09-03T02:08:47.301Z,1.73
2022-09-03T02:13:52.725Z,1.40
2022-09-03T02:18:59.844Z,1.05
2022-09-03T02:24:03.796Z,1.30
2022-09-03T02:29:05.808Z,1.20
2022-09-03T02:34:07.680Z,1.25
2022-09-03T02:39:09.779Z,1.40
2022-09-03T02:44:25.813Z,1.35
2022-09-03T02:49:28.677Z,1.27
2022-09-03T02:54:31.263Z,1.30
2022-09-03T02:59:33.412Z,1.40
2022-09-03T03:04:35.228Z,1.35
2022-09-03T03:09:37.005Z,1.40
2022-09-03T03:14:38.836Z,1.40
2022-09-03T03:19:40.774Z,1.90
2022-09-03T03:24:42.570Z,1.30
2022-09-03T03:29:44.368Z,1.70
2022-09-03T03:34:46.210Z,1.20
2022-09-03T03:39:47.990Z,1.95
2022-09-03T03:44:49.831Z,1.60
2022-09-03T03:49:51.600Z,1.48
2022-09-03T03:54:54.439Z,1.60
2022-09-03T03:59:57.296Z,1.30
2022-09-03T04:04:59.048Z,1.50
2022-09-03T04:10:00.805Z,1.40
2022-09-03T04:15:02.634Z,1.85
2022-09-03T04:20:04.799Z,1.73
2022-09-03T04:25:06.833Z,1.65
2022-09-03T04:30:09.200Z,1.40
2022-09-03T04:35:11.325Z,1.60
2022-09-03T04:40:13.352Z,2.28
2022-09-03T04:45:18.773Z,1.90
2022-09-03T04:50:20.799Z,1.92
2022-09-03T04:55:23.103Z,1.92
2022-09-03T05:00:24.944Z,1.55
2022-09-03T05:05:26.741Z,1.98
2022-09-03T05:10:29.019Z,2.00
2022-09-03T05:15:32.977Z,2.03
2022-09-03T05:20:34.773Z,1.50
2022-09-03T05:25:38.075Z,1.77
2022-09-03T05:30:40.039Z,1.85
2022-09-03T05:35:41.887Z,2.25
2022-09-03T05:40:44.323Z,2.38
2022-09-03T05:45:46.158Z,2.80
2022-09-03T05:50:48.973Z,1.92
2022-09-03T05:56:17.987Z,1.83
2022-09-03T06:01:26.236Z,1.90
2022-09-03T06:06:30.428Z,2.00
2022-09-03T06:11:33.460Z,1.83
2022-09-03T06:16:38.839Z,2.08
2022-09-03T06:21:43.153Z,2.20
2022-09-03T06:26:45.921Z,1.88
2022-09-03T06:31:48.847Z,2.00
2022-09-03T06:36:51.197Z,1.73
2022-09-03T06:41:56.417Z,2.00
2022-09-03T06:47:09.305Z,2.22
2022-09-03T06:52:11.052Z,1.95
2022-09-03T06:57:12.801Z,1.70
2022-09-03T07:02:14.631Z,1.60
2022-09-03T07:07:16.546Z,1.90
2022-09-03T07:12:19.267Z,1.80
2022-09-03T07:17:21.044Z,1.80
2022-09-03T07:22:22.849Z,1.90
2022-09-03T07:27:35.291Z,1.60
2022-09-03T07:32:40.886Z,1.70
2022-09-03T07:37:43.309Z,1.73
2022-09-03T07:42:45.092Z,1.90
2022-09-03T07:47:49.527Z,1.98
2022-09-03T07:52:58.414Z,1.60
2022-09-03T07:58:00.227Z,1.97
2022-09-03T08:03:06.146Z,2.10
2022-09-03T08:08:08.233Z,1.90
2022-09-03T08:13:10.980Z,1.70
2022-09-03T08:18:13.260Z,1.90
2022-09-03T08:23:16.317Z,1.70
2022-09-03T08:28:18.822Z,1.92
2022-09-03T08:33:36.970Z,2.08
2022-09-03T08:38:42.356Z,1.52
2022-09-03T08:44:05.189Z,1.88
2022-09-03T08:49:12.377Z,1.80
2022-09-03T08:54:15.081Z,2.20
2022-09-03T08:59:16.906Z,1.80
2022-09-03T09:04:46.973Z,1.60
2022-09-03T09:09:58.029Z,1.75
2022-09-03T09:15:26.349Z,1.60
2022-09-03T09:21:06.696Z,1.80
2022-09-03T09:26:13.799Z,1.48
2022-09-03T09:31:18.861Z,1.63
2022-09-03T09:36:23.308Z,1.70
2022-09-03T09:41:29.557Z,1.42
2022-09-03T09:46:38.044Z,1.50
2022-09-03T09:51:40.568Z,1.50
2022-09-03T09:56:44.557Z,1.58
2022-09-03T10:01:46.486Z,1.92
2022-09-03T10:06:57.198Z,1.30
2022-09-03T10:12:24.626Z,1.42
2022-09-03T10:17:37.014Z,1.70
2022-09-03T10:22:52.452Z,1.20
2022-09-03T10:28:01.946Z,1.48
2022-09-03T10:33:41.610Z,1.40
2022-09-03T10:38:45.540Z,1.43
2022-09-03T10:44:15.281Z,1.90
2022-09-03T10:50:10.961Z,1.33
2022-09-03T10:55:31.621Z,1.40
2022-09-03T11:00:39.797Z,1.60
2022-09-03T11:06:10.575Z,1.98
2022-09-03T11:11:20.037Z,1.80
2022-09-03T11:16:27.220Z,1.90
2022-09-03T11:21:31.657Z,2.17
2022-09-03T11:26:35.240Z,1.85
2022-09-03T11:31:57.692Z,1.55
2022-09-03T11:37:19.320Z,1.70
2022-09-03T11:42:28.047Z,1.95
2022-09-03T11:47:41.233Z,1.37
2022-09-03T11:52:43.085Z,1.65
2022-09-03T11:57:44.858Z,1.60
2022-09-03T12:03:01.226Z,1.55
2022-09-03T12:08:21.011Z,2.70
2022-09-03T12:18:33.760Z,1.33
2022-09-03T12:23:40.368Z,1.35
2022-09-03T12:28:46.179Z,1.50
2022-09-03T12:33:50.024Z,1.60
2022-09-03T12:44:14.233Z,1.25
2022-09-03T12:49:31.395Z,1.33
2022-09-03T12:54:37.861Z,2.30
2022-09-03T12:59:40.020Z,1.80
2022-09-03T13:04:42.937Z,1.45
2022-09-03T13:09:47.102Z,1.40
2022-09-03T13:14:52.539Z,1.50
2022-09-03T13:20:25.203Z,1.48
2022-09-03T13:25:50.806Z,1.50
2022-09-03T13:31:22.854Z,1.58
2022-09-03T13:36:31.645Z,1.58
2022-09-03T13:41:57.314Z,1.60
2022-09-03T13:47:09.961Z,1.85
2022-09-03T13:52:22.434Z,1.88
2022-09-03T13:57:42.285Z,1.30
2022-09-03T14:02:50.081Z,1.02
2022-09-03T14:07:57.975Z,1.80
2022-09-03T14:13:12.359Z,1.42
2022-09-03T14:18:26.757Z,1.35
2022-09-03T14:23:37.894Z,1.45
2022-09-03T14:28:50.008Z,1.52
2022-09-03T14:34:06.094Z,1.58
2022-09-03T14:39:27.646Z,1.67
2022-09-03T14:44:56.845Z,1.30
2022-09-03T14:50:26.184Z,1.50
2022-09-03T14:55:43.223Z,1.73
2022-09-03T15:01:13.358Z,1.60
2022-09-03T15:06:34.488Z,1.50
2022-09-03T15:12:02.368Z,1.50
2022-09-03T15:17:05.022Z,1.70
2022-09-03T15:22:42.823Z,1.40
2022-09-03T15:28:25.247Z,1.80
2022-09-03T15:33:45.438Z,1.80
2022-09-03T15:39:13.557Z,1.98
2022-09-03T15:44:20.451Z,1.98
2022-09-03T15:49:29.958Z,1.55
2022-09-03T15:54:45.485Z,2.20
2022-09-03T16:00:03.634Z,1.70
2022-09-03T16:05:39.632Z,1.98
2022-09-03T16:11:08.041Z,2.00
2022-09-03T16:16:23.971Z,2.50
2022-09-03T16:21:48.068Z,2.08
2022-09-03T16:27:19.452Z,2.00
2022-09-03T16:32:35.609Z,2.13
2022-09-03T16:38:07.350Z,2.67
2022-09-03T16:43:41.171Z,2.38
2022-09-03T16:49:29.566Z,2.60
2022-09-03T16:54:57.216Z,2.03
2022-09-03T17:00:15.424Z,2.55
2022-09-03T17:05:47.220Z,2.38
2022-09-03T17:11:20.806Z,2.58
2022-09-03T17:16:53.465Z,3.80
2022-09-03T17:22:23.514Z,3.17
2022-09-03T17:27:31.248Z,2.40
2022-09-03T17:32:47.317Z,2.78
2022-09-03T17:38:21.242Z,2.90
2022-09-03T17:43:35.473Z,2.85
2022-09-03T17:48:53.488Z,2.58
2022-09-03T17:54:08.851Z,2.63
2022-09-03T17:59:34.724Z,2.45
2022-09-03T18:04:50.393Z,2.28
2022-09-03T18:10:30.184Z,2.85
2022-09-03T18:15:48.230Z,2.87
2022-09-03T18:21:24.354Z,2.80
2022-09-03T18:26:49.996Z,3.10
2022-09-03T18:32:10.319Z,3.13
2022-09-03T18:37:30.622Z,3.08
2022-09-03T18:43:23.905Z,2.40
2022-09-03T18:48:54.792Z,2.45
2022-09-03T18:54:36.903Z,2.92
2022-09-03T19:00:28.599Z,3.13
2022-09-03T19:06:15.742Z,3.22
2022-09-03T19:11:57.239Z,3.00
2022-09-03T19:17:39.040Z,3.28
2022-09-03T19:23:00.972Z,3.00
2022-09-03T19:28:27.374Z,3.17
2022-09-03T19:34:31.518Z,2.75
2022-09-03T19:39:55.028Z,3.03
2022-09-03T19:45:25.569Z,2.75
2022-09-03T19:50:52.486Z,2.60
2022-09-03T19:56:15.174Z,2.72
2022-09-03T20:01:37.347Z,3.00
2022-09-03T20:06:58.544Z,3.28
2022-09-03T20:12:09.207Z,2.80
2022-09-03T20:17:34.587Z,3.17
2022-09-03T20:22:49.910Z,2.97
2022-09-03T20:27:57.387Z,2.97
2022-09-03T20:33:42.139Z,2.63
2022-09-03T20:38:58.416Z,2.80
2022-09-03T20:44:09.174Z,2.70
2022-09-03T20:49:20.576Z,2.08
2022-09-03T20:54:47.378Z,2.83
2022-09-03T20:59:55.105Z,2.63
2022-09-03T21:05:17.485Z,2.83
2022-09-03T21:10:43.428Z,2.55
2022-09-03T21:16:06.203Z,2.17
2022-09-03T21:21:16.767Z,2.20
2022-09-03T21:26:30.992Z,2.30
2022-09-03T21:31:49.445Z,3.10
2022-09-03T21:36:51.483Z,2.33
2022-09-03T21:41:56.662Z,2.28
2022-09-03T21:47:13.339Z,3.20
2022-09-03T21:52:20.961Z,3.42
2022-09-03T21:57:43.941Z,3.97
2022-09-03T22:02:47.334Z,3.30
2022-09-03T22:08:42.077Z,2.97
2022-09-03T22:13:44.193Z,2.78
2022-09-03T22:18:47.114Z,2.45
2022-09-03T22:24:24.533Z,2.50
2022-09-03T22:29:53.196Z,2.67
2022-09-03T22:35:13.497Z,2.05
2022-09-03T22:40:25.991Z,2.15
2022-09-03T22:45:45.641Z,1.98
2022-09-03T22:51:01.759Z,1.83
2022-09-03T22:56:12.435Z,1.90
2022-09-03T23:01:38.475Z,2.20
2022-09-03T23:06:53.561Z,1.98
2022-09-03T23:12:01.231Z,2.30
2022-09-03T23:17:20.181Z,2.05
2022-09-03T23:22:24.440Z,1.60
2022-09-03T23:27:51.474Z,1.60
2022-09-03T23:32:57.110Z,1.60
2022-09-03T23:38:13.917Z,1.80
2022-09-03T23:43:42.206Z,1.83
2022-09-03T23:49:16.579Z,2.00
2022-09-03T23:54:46.725Z,1.50
